createdAt,value
2018-04-29T00:01:22.737Z,94790.34
2018-04-29T00:03:51.775Z,94787.92
2018-04-29T00:06:21.405Z,94785.11
2018-04-29T00:08:50.480Z,94785.49
2018-04-29T00:11:20.852Z,94779.55
2018-04-29T00:13:49.907Z,94784.95
2018-04-29T00:16:19.686Z,94781.95
2018-04-29T00:18:48.738Z,94781.33
2018-04-29T00:21:17.788Z,94776.05
2018-04-29T00:23:47.789Z,94776.89
2018-04-29T00:26:17.474Z,94780.70
2018-04-29T00:28:48.455Z,94788.63
2018-04-29T00:31:17.802Z,94789.16
2018-04-29T00:33:46.861Z,94785.78
2018-04-29T00:36:16.138Z,94788.11
2018-04-29T00:38:45.209Z,94794.55
2018-04-29T00:41:14.753Z,94791.45
2018-04-29T00:43:43.817Z,94793.31
2018-04-29T00:46:14.222Z,94793.03
2018-04-29T00:48:43.256Z,94788.30
2018-04-29T00:51:13.026Z,94788.09
2018-04-29T00:53:44.801Z,94793.86
2018-04-29T00:56:13.864Z,94792.61
2018-04-29T00:58:44.509Z,94798.77
2018-04-29T01:01:13.565Z,94791.14
2018-04-29T01:03:45.161Z,94791.94
2018-04-29T01:06:14.213Z,94794.39
2018-04-29T01:08:44.178Z,94789.30
2018-04-29T01:11:13.314Z,94789.69
2018-04-29T01:13:43.294Z,94790.94
2018-04-29T01:16:16.109Z,94788.09
2018-04-29T01:18:45.368Z,94790.64
2018-04-29T01:21:19.533Z,94793.43
2018-04-29T01:23:49.203Z,94802.81
2018-04-29T01:26:18.241Z,94817.25
2018-04-29T01:28:47.933Z,94832.66
2018-04-29T01:31:16.979Z,94838.20
2018-04-29T01:33:46.114Z,94836.54
2018-04-29T01:36:15.162Z,94840.16
2018-04-29T01:38:45.179Z,94838.28
2018-04-29T01:41:14.441Z,94840.86
2018-04-29T01:43:44.007Z,94857.34
2018-04-29T01:46:15.011Z,94865.36
2018-04-29T01:48:44.250Z,94872.00
2018-04-29T01:51:13.431Z,94869.30
2018-04-29T01:53:42.488Z,94873.11
2018-04-29T01:56:11.551Z,94869.95
2018-04-29T01:58:40.741Z,94872.69
2018-04-29T02:01:09.820Z,94868.73
2018-04-29T02:03:38.927Z,94872.77
2018-04-29T02:06:08.032Z,94865.41
2018-04-29T02:08:37.262Z,94867.12
2018-04-29T02:11:06.318Z,94869.22
2018-04-29T02:13:35.377Z,94875.72
2018-04-29T02:16:04.438Z,94875.14
2018-04-29T02:18:37.303Z,94875.08
2018-04-29T02:21:06.403Z,94878.70
2018-04-29T02:23:35.617Z,94879.28
2018-04-29T02:26:06.641Z,94883.75
2018-04-29T02:28:35.791Z,94884.52
2018-04-29T02:31:05.958Z,94894.22
2018-04-29T02:33:37.020Z,94893.81
2018-04-29T02:36:07.054Z,94888.25
2018-04-29T02:38:38.260Z,94887.89
2018-04-29T02:43:43.053Z,94882.91
2018-04-29T02:46:13.057Z,94878.42
2018-04-29T02:48:42.106Z,94882.94
2018-04-29T02:51:12.199Z,94884.77
2018-04-29T02:56:18.421Z,94894.23
2018-04-29T02:58:47.486Z,94888.73
2018-04-29T03:01:16.547Z,94881.92
2018-04-29T03:03:46.505Z,94883.53
2018-04-29T03:08:51.330Z,94880.84
2018-04-29T03:11:21.403Z,94880.75
2018-04-29T03:13:50.434Z,94883.84
2018-04-29T03:16:19.823Z,94888.99
2018-04-29T03:18:49.002Z,94887.06
2018-04-29T03:21:19.110Z,94881.89
2018-04-29T03:23:48.255Z,94884.55
2018-04-29T03:28:56.356Z,94888.71
2018-04-29T03:31:29.160Z,94890.73
2018-04-29T03:33:58.194Z,94895.30
2018-04-29T03:36:27.310Z,94897.27
2018-04-29T03:38:56.357Z,94903.03
2018-04-29T03:41:25.415Z,94906.31
2018-04-29T03:43:54.815Z,94908.06
2018-04-29T03:49:00.060Z,94914.66
2018-04-29T03:51:30.140Z,94917.27
2018-04-29T03:53:59.169Z,94921.58
2018-04-29T03:56:32.274Z,94928.33
2018-04-29T04:02:06.611Z,94923.42
2018-04-29T04:09:47.277Z,94927.39
2018-04-29T04:12:16.353Z,94928.05
2018-04-29T04:14:45.403Z,94927.07
2018-04-29T04:17:14.453Z,94923.03
2018-04-29T04:19:43.506Z,94918.73
2018-04-29T04:22:13.502Z,94917.12
2018-04-29T04:24:42.931Z,94918.66
2018-04-29T04:27:11.980Z,94921.78
2018-04-29T04:29:41.019Z,94921.70
2018-04-29T04:32:11.037Z,94932.28
2018-04-29T04:34:40.450Z,94932.03
2018-04-29T04:37:09.477Z,94934.11
2018-04-29T04:39:38.541Z,94937.72
2018-04-29T04:42:08.700Z,94944.79
2018-04-29T04:47:13.445Z,94949.02
2018-04-29T04:49:42.514Z,94947.48
2018-04-29T04:52:12.111Z,94954.36
2018-04-29T04:54:41.188Z,94953.35
2018-04-29T04:57:11.249Z,94957.95
2018-04-29T04:59:40.313Z,94958.86
2018-04-29T05:02:09.374Z,94958.92
2018-04-29T05:04:38.792Z,94966.84
2018-04-29T05:09:43.511Z,94962.95
2018-04-29T05:12:12.558Z,94956.91
2018-04-29T05:14:42.725Z,94961.13
2018-04-29T05:17:12.155Z,94966.94
2018-04-29T05:19:42.126Z,94970.77
2018-04-29T05:22:12.241Z,94970.52
2018-04-29T05:24:42.758Z,94976.05
2018-04-29T05:27:11.863Z,94971.10
2018-04-29T05:32:16.678Z,94965.66
2018-04-29T05:34:45.931Z,94961.33
2018-04-29T05:37:14.974Z,94963.52
2018-04-29T05:39:44.944Z,94963.73
2018-04-29T05:42:15.002Z,94963.73
2018-04-29T05:44:44.187Z,94963.42
2018-04-29T05:47:13.233Z,94962.23
2018-04-29T05:49:42.293Z,94953.05
2018-04-29T05:52:11.337Z,94951.06
2018-04-29T05:57:29.165Z,94942.05
2018-04-29T06:00:08.377Z,94937.66
2018-04-29T06:02:47.986Z,94940.34
2018-04-29T06:05:31.852Z,94936.61
2018-04-29T06:08:13.157Z,94935.38
2018-04-29T06:10:53.305Z,94936.31
2018-04-29T06:13:34.509Z,94930.11
2018-04-29T06:16:16.977Z,94924.63
2018-04-29T06:18:59.847Z,94921.16
2018-04-29T06:21:41.369Z,94904.51
2018-04-29T06:27:02.942Z,94894.44
2018-04-29T06:35:01.291Z,94882.70
2018-04-29T06:37:42.019Z,94880.76
2018-04-29T06:40:22.609Z,94882.38
2018-04-29T06:43:02.072Z,94881.92
2018-04-29T06:45:44.030Z,94881.05
2018-04-29T06:48:23.300Z,94876.09
2018-04-29T06:51:02.375Z,94878.27
2018-04-29T06:56:25.063Z,94879.33
2018-04-29T06:59:07.088Z,94871.63
2018-04-29T07:01:50.059Z,94871.86
2018-04-29T07:04:30.346Z,94866.34
2018-04-29T07:07:00.023Z,94861.72
2018-04-29T07:09:29.554Z,94856.52
2018-04-29T07:11:58.582Z,94856.23
2018-04-29T07:14:28.986Z,94862.41
2018-04-29T07:19:33.756Z,94849.31
2018-04-29T07:22:02.826Z,94842.09
2018-04-29T07:24:31.864Z,94840.42
2018-04-29T07:27:00.923Z,94841.47
2018-04-29T07:29:30.023Z,94838.33
2018-04-29T07:31:59.106Z,94833.27
2018-04-29T07:34:28.789Z,94829.80
2018-04-29T07:36:57.859Z,94834.67
2018-04-29T07:39:27.396Z,94835.84
2018-04-29T07:41:56.447Z,94831.23
2018-04-29T07:44:25.498Z,94827.58
2018-04-29T07:46:56.485Z,94816.49
2018-04-29T07:49:25.555Z,94810.09
2018-04-29T07:51:54.598Z,94808.47
2018-04-29T07:54:24.561Z,94810.59
2018-04-29T07:56:54.583Z,94810.30
2018-04-29T07:59:23.809Z,94809.19
2018-04-29T08:04:28.794Z,94796.34
2018-04-29T08:06:58.046Z,94793.20
2018-04-29T08:09:27.183Z,94791.80
2018-04-29T08:11:56.266Z,94787.84
2018-04-29T08:14:25.309Z,94788.96
2018-04-29T08:19:30.241Z,94792.06
2018-04-29T08:22:01.035Z,94782.34
2018-04-29T08:24:30.225Z,94781.29
2018-04-29T08:27:00.180Z,94780.98
2018-04-29T08:29:29.337Z,94778.84
2018-04-29T08:31:59.312Z,94776.33
2018-04-29T08:34:28.513Z,94779.36
2018-04-29T08:39:34.007Z,94782.02
2018-04-29T08:44:39.500Z,94769.00
2018-04-29T08:47:08.709Z,94761.62
2018-04-29T08:49:39.091Z,94753.59
2018-04-29T08:52:08.140Z,94751.80
2018-04-29T08:54:37.540Z,94749.85
2018-04-29T08:57:07.598Z,94751.30
2018-04-29T08:59:36.668Z,94747.88
2018-04-29T09:02:05.812Z,94750.09
2018-04-29T09:04:34.919Z,94750.45
2018-04-29T09:07:04.093Z,94748.38
2018-04-29T09:09:33.177Z,94744.68
2018-04-29T09:12:02.341Z,94742.73
2018-04-29T09:14:31.433Z,94741.24
2018-04-29T09:17:01.254Z,94739.58
2018-04-29T09:19:30.404Z,94738.59
2018-04-29T09:21:59.948Z,94737.98
2018-04-29T09:24:29.127Z,94730.20
2018-04-29T09:29:34.049Z,94732.58
2018-04-29T09:32:03.185Z,94731.73
2018-04-29T09:34:32.369Z,94731.38
2018-04-29T09:37:01.815Z,94726.05
2018-04-29T09:39:31.082Z,94720.70
2018-04-29T09:42:00.170Z,94724.36
2018-04-29T09:44:29.792Z,94723.61
2018-04-29T09:46:59.658Z,94720.05
2018-04-29T09:52:05.348Z,94712.88
2018-04-29T09:54:34.667Z,94708.70
2018-04-29T10:02:17.059Z,94706.97
2018-04-29T10:04:47.414Z,94706.21
2018-04-29T10:09:52.251Z,94701.97
2018-04-29T10:12:22.682Z,94696.37
2018-04-29T10:14:51.785Z,94698.34
2018-04-29T10:17:21.522Z,94690.65
2018-04-29T10:19:50.582Z,94680.66
2018-04-29T10:22:19.650Z,94675.75
2018-04-29T10:24:49.580Z,94673.87
2018-04-29T10:27:18.651Z,94674.59
2018-04-29T10:29:48.124Z,94667.70
2018-04-29T10:32:17.658Z,94662.46
2018-04-29T10:34:46.706Z,94662.48
2018-04-29T10:37:16.514Z,94656.77
2018-04-29T10:39:45.548Z,94655.26
2018-04-29T10:44:50.415Z,94644.39
2018-04-29T10:47:19.482Z,94643.41
2018-04-29T10:52:15.066Z,94637.55
2018-04-29T10:54:44.152Z,94635.28
2018-04-29T10:57:13.734Z,94624.86
2018-04-29T10:59:43.248Z,94621.92
2018-04-29T11:04:48.109Z,94611.02
2018-04-29T11:07:17.354Z,94604.09
2018-04-29T11:09:46.403Z,94605.59
2018-04-29T11:12:15.453Z,94596.59
2018-04-29T11:14:45.028Z,94599.73
2018-04-29T11:17:14.622Z,94596.06
2018-04-29T11:19:43.856Z,94598.42
2018-04-29T11:22:13.435Z,94588.58
2018-04-29T11:27:18.195Z,94581.31
2018-04-29T11:32:22.959Z,94575.97
2018-04-29T11:34:52.542Z,94573.34
2018-04-29T11:37:21.578Z,94569.45
2018-04-29T11:39:51.042Z,94557.66
2018-04-29T11:42:20.166Z,94555.36
2018-04-29T11:47:25.007Z,94539.94
2018-04-29T11:52:30.067Z,94538.11
2018-04-29T11:55:00.062Z,94534.83
2018-04-29T11:57:29.842Z,94535.84
2018-04-29T11:59:59.040Z,94529.92
2018-04-29T12:02:28.442Z,94528.11
2018-04-29T12:04:57.490Z,94529.18
2018-04-29T12:07:26.816Z,94529.73
2018-04-29T12:12:31.578Z,94524.60
2018-04-29T12:15:00.686Z,94516.14
2018-04-29T12:17:30.233Z,94511.98
2018-04-29T12:19:59.674Z,94505.08
2018-04-29T12:22:28.680Z,94513.30
2018-04-29T12:24:58.626Z,94510.70
2018-04-29T12:27:27.679Z,94507.52
2018-04-29T12:29:56.735Z,94500.95
2018-04-29T12:32:25.839Z,94500.03
2018-04-29T12:34:55.479Z,94494.45
2018-04-29T12:37:24.522Z,94490.77
2018-04-29T12:39:53.892Z,94491.98
2018-04-29T12:42:22.914Z,94477.41
2018-04-29T12:44:51.986Z,94468.23
2018-04-29T12:47:22.009Z,94468.33
2018-04-29T12:49:52.182Z,94459.37
2018-04-29T12:52:22.182Z,94456.42
2018-04-29T12:54:51.690Z,94450.27
2018-04-29T12:57:21.170Z,94445.92
2018-04-29T12:59:50.193Z,94456.77
2018-04-29T13:02:19.986Z,94449.17
2018-04-29T13:04:50.030Z,94440.30
2018-04-29T13:07:19.367Z,94430.02
2018-04-29T13:09:49.203Z,94426.32
2018-04-29T13:12:18.271Z,94425.27
2018-04-29T13:14:47.375Z,94422.63
2018-04-29T13:17:16.657Z,94413.77
2018-04-29T13:19:45.994Z,94410.39
2018-04-29T13:22:16.255Z,94402.98
2018-04-29T13:24:45.731Z,94403.30
2018-04-29T13:27:15.185Z,94399.91
2018-04-29T13:29:44.247Z,94390.36
2018-04-29T13:32:13.289Z,94384.45
2018-04-29T13:34:42.461Z,94382.72
2018-04-29T13:37:12.130Z,94375.92
2018-04-29T13:39:41.376Z,94376.59
2018-04-29T13:42:10.531Z,94368.17
2018-04-29T13:44:39.594Z,94372.67
2018-04-29T13:47:12.272Z,94361.34
2018-04-29T13:49:42.178Z,94349.08
2018-04-29T13:52:27.740Z,94348.77
2018-04-29T13:55:11.067Z,94334.49
2018-04-29T14:00:35.290Z,94319.97
2018-04-29T14:03:10.465Z,94318.77
2018-04-29T14:05:43.630Z,94311.87
2018-04-29T14:08:16.503Z,94310.46
2018-04-29T14:10:49.351Z,94306.75
2018-04-29T14:13:21.728Z,94307.86
2018-04-29T14:15:54.652Z,94304.56
2018-04-29T14:18:23.687Z,94293.89
2018-04-29T14:20:53.170Z,94289.53
2018-04-29T14:23:22.213Z,94289.76
2018-04-29T14:25:51.262Z,94287.27
2018-04-29T14:28:20.603Z,94284.53
2018-04-29T14:30:49.666Z,94290.48
2018-04-29T14:33:19.246Z,94284.05
2018-04-29T14:35:48.646Z,94287.75
2018-04-29T14:38:17.685Z,94281.88
2018-04-29T14:43:23.704Z,94263.52
2018-04-29T14:48:29.344Z,94254.02
2018-04-29T14:50:58.427Z,94248.83
2018-04-29T14:53:27.477Z,94248.51
2018-04-29T14:55:56.591Z,94241.09
2018-04-29T14:58:26.399Z,94237.09
2018-04-29T15:00:55.445Z,94241.33
2018-04-29T15:03:24.508Z,94236.09
2018-04-29T15:05:53.556Z,94234.86
2018-04-29T15:08:22.636Z,94230.88
2018-04-29T15:10:52.389Z,94220.59
2018-04-29T15:15:57.332Z,94217.80
2018-04-29T15:18:45.612Z,94208.86
2018-04-29T15:21:14.732Z,94218.80
2018-04-29T15:23:44.469Z,94218.38
2018-04-29T15:26:13.565Z,94200.47
2018-04-29T15:28:42.723Z,94217.28
2018-04-29T15:31:12.351Z,94222.93
2018-04-29T15:33:41.398Z,94224.17
2018-04-29T15:36:10.755Z,94220.35
2018-04-29T15:38:39.817Z,94218.31
2018-04-29T15:41:08.892Z,94211.11
2018-04-29T15:43:38.437Z,94204.16
2018-04-29T15:46:07.480Z,94200.73
2018-04-29T15:48:36.968Z,94191.73
2018-04-29T15:51:06.035Z,94194.09
2018-04-29T15:53:35.086Z,94191.47
2018-04-29T15:56:04.135Z,94185.42
2018-04-29T15:58:33.185Z,94183.19
2018-04-29T16:01:02.634Z,94175.16
2018-04-29T16:03:31.753Z,94170.77
2018-04-29T16:06:00.992Z,94166.88
2018-04-29T16:08:30.526Z,94165.28
2018-04-29T16:10:59.577Z,94161.67
2018-04-29T16:13:28.663Z,94158.61
2018-04-29T16:15:58.528Z,94163.27
2018-04-29T16:18:27.578Z,94165.00
2018-04-29T16:20:57.612Z,94157.92
2018-04-29T16:23:26.853Z,94158.98
2018-04-29T16:25:55.916Z,94160.60
2018-04-29T16:28:24.983Z,94158.20
2018-04-29T16:30:54.476Z,94161.42
2018-04-29T16:33:23.518Z,94162.93
2018-04-29T16:38:28.426Z,94159.62
2018-04-29T16:40:58.003Z,94157.05
2018-04-29T16:43:27.045Z,94160.14
2018-04-29T16:48:31.868Z,94154.49
2018-04-29T16:51:01.208Z,94148.02
2018-04-29T16:53:30.255Z,94148.47
2018-04-29T16:56:00.177Z,94147.67
2018-04-29T16:58:29.505Z,94141.39
2018-04-29T17:00:58.566Z,94138.93
2018-04-29T17:03:27.614Z,94137.95
2018-04-29T17:05:57.238Z,94132.30
2018-04-29T17:08:26.292Z,94126.96
2018-04-29T17:11:40.198Z,94128.62
2018-04-29T17:14:09.350Z,94129.95
2018-04-29T17:16:38.648Z,94131.89
2018-04-29T17:19:07.686Z,94131.64
2018-04-29T17:21:36.757Z,94125.05
2018-04-29T17:24:06.079Z,94125.15
2018-04-29T17:26:35.122Z,94115.38
2018-04-29T17:29:04.228Z,94112.52
2018-04-29T17:31:33.414Z,94112.88
2018-04-29T17:34:02.450Z,94105.61
2018-04-29T17:36:31.511Z,94108.80
2018-04-29T17:39:01.142Z,94099.03
2018-04-29T17:44:06.638Z,94089.27
2018-04-29T17:49:11.401Z,94092.27
2018-04-29T17:54:16.200Z,94086.97
2018-04-29T17:56:45.255Z,94088.39
2018-04-29T17:59:14.451Z,94085.59
2018-04-29T18:01:43.529Z,94079.22
2018-04-29T18:04:12.582Z,94077.56
2018-04-29T18:06:41.628Z,94074.64
2018-04-29T18:09:10.754Z,94073.77
2018-04-29T18:14:15.555Z,94071.34
2018-04-29T18:16:44.683Z,94069.34
2018-04-29T18:19:14.915Z,94071.36
2018-04-29T18:21:43.966Z,94066.70
2018-04-29T18:24:13.947Z,94070.78
2018-04-29T18:26:43.147Z,94076.23
2018-04-29T18:29:12.222Z,94080.47
2018-04-29T18:31:41.300Z,94071.98
2018-04-29T18:34:10.342Z,94081.78
2018-04-29T18:36:39.574Z,94076.56
2018-04-29T18:39:08.724Z,94081.63
2018-04-29T18:41:37.822Z,94076.72
2018-04-29T18:44:07.282Z,94078.19
2018-04-29T18:46:36.437Z,94079.97
2018-04-29T18:49:05.522Z,94084.39
2018-04-29T18:51:34.599Z,94079.84
2018-04-29T18:54:03.762Z,94082.72
2018-04-29T18:56:33.699Z,94079.03
2018-04-29T18:59:02.866Z,94081.05
2018-04-29T19:01:32.087Z,94078.50
2018-04-29T19:04:01.151Z,94076.06
2018-04-29T19:09:08.240Z,94082.12
2018-04-29T19:11:37.297Z,94081.59
2018-04-29T19:14:06.377Z,94085.89
2018-04-29T19:16:35.522Z,94079.52
2018-04-29T19:19:04.589Z,94078.70
2018-04-29T19:24:10.067Z,94077.13
2018-04-29T19:26:39.031Z,94080.53
2018-04-29T19:29:08.072Z,94073.95
2018-04-29T19:31:37.339Z,94080.13
2018-04-29T19:34:06.496Z,94076.95
2018-04-29T19:39:11.359Z,94063.03
2018-04-29T19:41:40.422Z,94065.80
2018-04-29T19:44:09.785Z,94065.34
2018-04-29T19:46:39.069Z,94066.87
2018-04-29T19:49:08.126Z,94063.03
2018-04-29T19:51:37.173Z,94061.50
2018-04-29T19:54:06.242Z,94062.23
2018-04-29T19:56:35.348Z,94064.35
2018-04-29T19:59:04.652Z,94063.06
2018-04-29T20:01:34.666Z,94066.23
2018-04-29T20:04:03.756Z,94062.94
2018-04-29T20:06:33.104Z,94062.96
2018-04-29T20:09:02.170Z,94062.30
2018-04-29T20:11:32.164Z,94062.02
2018-04-29T20:14:01.211Z,94050.31
2018-04-29T20:16:31.286Z,94053.39
2018-04-29T20:19:00.572Z,94054.07
2018-04-29T20:21:30.709Z,94041.09
2018-04-29T20:23:59.770Z,94041.08
2018-04-29T20:26:28.890Z,94041.05
2018-04-29T20:28:57.945Z,94036.25
2018-04-29T20:34:10.468Z,94026.89
2018-04-29T20:39:15.254Z,94011.48
2018-04-29T20:41:44.351Z,94010.36
2018-04-29T20:44:13.485Z,94009.17
2018-04-29T20:46:42.662Z,94000.92
2018-04-29T20:49:11.694Z,94000.44
2018-04-29T20:51:40.749Z,93996.19
2018-04-29T20:54:09.907Z,94009.86
2018-04-29T20:56:38.971Z,94001.96
2018-04-29T20:59:09.995Z,93994.36
2018-04-29T21:01:39.050Z,93997.48
2018-04-29T21:04:08.242Z,94003.16
2018-04-29T21:06:38.619Z,94007.23
2018-04-29T21:09:07.655Z,94003.04
2018-04-29T21:11:36.711Z,93999.48
2018-04-29T21:14:05.922Z,94001.98
2018-04-29T21:16:34.984Z,94002.59
2018-04-29T21:19:04.052Z,93995.85
2018-04-29T21:21:33.199Z,93991.37
2018-04-29T21:26:38.045Z,93994.17
2018-04-29T21:29:07.077Z,93985.00
2018-04-29T21:31:36.226Z,93987.02
2018-04-29T21:34:05.345Z,93983.28
2018-04-29T21:36:34.405Z,93982.34
2018-04-29T21:39:03.459Z,93979.36
2018-04-29T21:41:32.606Z,93977.03
2018-04-29T21:44:01.711Z,93976.51
2018-04-29T21:46:30.993Z,93976.23
2018-04-29T21:49:01.039Z,93973.75
2018-04-29T21:51:30.099Z,93972.66
2018-04-29T21:54:00.162Z,93977.20
2018-04-29T21:56:43.571Z,93973.64
2018-04-29T21:59:14.597Z,93971.12
2018-04-29T22:01:43.823Z,93975.14
2018-04-29T22:04:12.899Z,93972.63
2018-04-29T22:06:41.902Z,93972.82
2018-04-29T22:09:11.186Z,93965.84
2018-04-29T22:11:40.261Z,93967.18
2018-04-29T22:16:45.103Z,93958.30
2018-04-29T22:19:14.170Z,93952.38
2018-04-29T22:21:43.274Z,93954.29
2018-04-29T22:24:12.387Z,93949.36
2018-04-29T22:26:41.623Z,93955.02
2018-04-29T22:29:10.662Z,93953.68
2018-04-29T22:31:39.754Z,93952.75
2018-04-29T22:34:08.806Z,93956.22
2018-04-29T22:36:37.842Z,93949.42
2018-04-29T22:39:07.918Z,93941.89
2018-04-29T22:41:36.965Z,93940.48
2018-04-29T22:44:07.149Z,93944.88
2018-04-29T22:46:36.181Z,93943.24
2018-04-29T22:49:05.469Z,93944.05
2018-04-29T22:51:34.640Z,93941.34
2018-04-29T22:56:39.409Z,93940.84
2018-04-29T22:59:08.477Z,93939.27
2018-04-29T23:01:37.548Z,93937.50
2018-04-29T23:04:06.744Z,93933.20
2018-04-29T23:06:35.792Z,93930.83
2018-04-29T23:09:05.499Z,93934.98
2018-04-29T23:11:34.563Z,93924.27
2018-04-29T23:16:39.390Z,93926.64
2018-04-29T23:19:08.441Z,93923.95
2018-04-29T23:21:37.490Z,93920.80
2018-04-29T23:24:06.655Z,93917.91
2018-04-29T23:26:35.767Z,93919.81
2018-04-29T23:31:40.670Z,93916.48
2018-04-29T23:34:09.749Z,93908.02
2018-04-29T23:36:39.090Z,93907.36
2018-04-29T23:39:08.164Z,93912.34
2018-04-29T23:41:37.217Z,93910.95
2018-04-29T23:44:06.276Z,93911.95
2018-04-29T23:46:35.331Z,93901.41
2018-04-29T23:49:04.407Z,93887.42
2018-04-29T23:51:33.538Z,93888.20
2018-04-29T23:54:02.587Z,93887.88
2018-04-29T23:56:31.686Z,93891.47
